Time;durP1;ratioP1;P1;durP2;ratioP2;P2;SDS_P1;SDS_P2;PMS_P1;PMS_P2;Temp;Humidity;BMP_temperature;BMP_pressure;BME280_temperature;BME280_humidity;BME280_pressure;Samples;Min_cycle;Max_cycle;Signal;HPM_P1;HPM_P2
2023/07/14 00:02:17;;;;;;;;;;;17.20;97.30;;;;;;5103088;28;19924;-43
2023/07/14 00:04:44;;;;;;;;;;;17.20;97.40;;;;;;5076570;28;19924;-43
2023/07/14 00:07:11;;;;;;;;;;;17.20;97.60;;;;;;5086005;28;20376;-44
2023/07/14 00:09:42;;;;;;;;;;;17.10;97.70;;;;;;5074511;28;19971;-44
2023/07/14 00:12:09;;;;;;;;;;;17.10;97.90;;;;;;5054353;28;19924;-44
2023/07/14 00:14:37;;;;;;;;;;;17.10;98.00;;;;;;5066355;28;19986;-44
2023/07/14 00:17:05;;;;;;;;;;;17.10;98.60;;;;;;5070399;28;20011;-42
2023/07/14 00:19:32;;;;;;;;;;;17.00;98.40;;;;;;5082081;28;19925;-43
2023/07/14 00:21:58;;;;;;;;;;;16.90;98.40;;;;;;5092656;28;19947;-43
2023/07/14 00:24:26;;;;;;;;;;;16.90;98.60;;;;;;5074155;28;19924;-43
2023/07/14 00:26:55;;;;;;;;;;;16.90;98.60;;;;;;5106305;28;20395;-43
2023/07/14 00:29:28;;;;;;;;;;;16.90;98.90;;;;;;5112588;27;19925;-44
2023/07/14 00:31:57;;;;;;;;;;;16.90;99.00;;;;;;5066117;28;19932;-42
2023/07/14 00:34:24;;;;;;;;;;;16.80;99.20;;;;;;5055381;28;19936;-44
2023/07/14 00:36:51;;;;;;;;;;;16.80;99.60;;;;;;5073693;28;20291;-43
2023/07/14 00:39:18;;;;;;;;;;;16.80;99.90;;;;;;5080612;28;19924;-43
2023/07/14 00:41:45;;;;;;;;;;;16.70;99.90;;;;;;5079025;28;19924;-43
2023/07/14 00:44:12;;;;;;;;;;;16.70;99.90;;;;;;5064364;28;20015;-43
2023/07/14 00:46:39;;;;;;;;;;;16.60;99.90;;;;;;5055422;28;19947;-42
2023/07/14 00:49:07;;;;;;;;;;;16.70;99.90;;;;;;5069388;28;19931;-43
2023/07/14 00:51:35;;;;;;;;;;;16.60;99.90;;;;;;5058177;28;19931;-43
2023/07/14 00:54:02;;;;;;;;;;;16.60;99.90;;;;;;5079022;28;19924;-43
2023/07/14 00:56:33;;;;;;;;;;;16.60;99.90;;;;;;5077074;28;19924;-42
2023/07/14 00:59:00;;;;;;;;;;;16.60;99.90;;;;;;5068092;28;19925;-43
2023/07/14 01:01:28;;;;;;;;;;;16.60;99.90;;;;;;5060071;28;19928;-43
2023/07/14 01:03:55;;;;;;;;;;;16.50;99.90;;;;;;5068355;28;19924;-43
2023/07/14 01:06:24;;;;;;;;;;;16.50;99.90;;;;;;5076690;28;19972;-43
2023/07/14 01:08:52;;;;;;;;;;;16.50;99.90;;;;;;5051807;28;20008;-43
2023/07/14 01:11:19;;;;;;;;;;;16.40;99.90;;;;;;5067915;28;19931;-43
2023/07/14 01:13:46;;;;;;;;;;;16.40;99.90;;;;;;5102074;28;20387;-43
2023/07/14 01:16:14;;;;;;;;;;;16.40;99.90;;;;;;5071575;28;19924;-42
2023/07/14 01:18:41;;;;;;;;;;;16.40;99.90;;;;;;5088675;28;19925;-43
2023/07/14 01:21:07;;;;;;;;;;;16.40;99.90;;;;;;5065332;28;19966;-43
2023/07/14 01:23:42;;;;;;;;;;;16.40;99.90;;;;;;5093140;28;19924;-43
2023/07/14 01:26:14;;;;;;;;;;;16.30;99.90;;;;;;5070862;28;20441;-43
2023/07/14 01:28:42;;;;;;;;;;;16.30;99.90;;;;;;5081591;28;19924;-43
2023/07/14 01:31:11;;;;;;;;;;;16.30;99.90;;;;;;5078532;28;19927;-44
2023/07/14 01:33:38;;;;;;;;;;;16.30;99.90;;;;;;5118331;27;19931;-42
2023/07/14 01:36:06;;;;;;;;;;;16.30;99.90;;;;;;5071746;28;19924;-43
2023/07/14 01:38:33;;;;;;;;;;;16.20;99.90;;;;;;5058941;28;20379;-43
2023/07/14 01:41:00;;;;;;;;;;;16.20;99.90;;;;;;5074288;28;19935;-44
2023/07/14 01:43:27;;;;;;;;;;;16.20;99.90;;;;;;5066591;28;19924;-43
2023/07/14 01:45:56;;;;;;;;;;;16.10;99.90;;;;;;5052287;28;20331;-44
2023/07/14 01:48:25;;;;;;;;;;;16.10;99.90;;;;;;5052944;28;20356;-43
2023/07/14 01:50:53;;;;;;;;;;;16.10;99.90;;;;;;5105135;28;19924;-43
2023/07/14 01:53:20;;;;;;;;;;;16.10;99.90;;;;;;5073164;28;19990;-43
2023/07/14 01:55:47;;;;;;;;;;;16.10;99.90;;;;;;5069301;28;19924;-43
2023/07/14 01:58:15;;;;;;;;;;;16.10;99.90;;;;;;5086024;28;19925;-43
2023/07/14 02:00:43;;;;;;;;;;;16.00;99.90;;;;;;5066830;28;19968;-43
2023/07/14 02:03:12;;;;;;;;;;;16.00;99.90;;;;;;5078046;28;19928;-43
2023/07/14 02:05:39;;;;;;;;;;;15.90;99.90;;;;;;5057699;28;20011;-43
2023/07/14 02:08:06;;;;;;;;;;;15.90;99.90;;;;;;5066200;28;19975;-43
2023/07/14 02:10:33;;;;;;;;;;;15.90;99.90;;;;;;5055572;28;20351;-43
2023/07/14 02:13:00;;;;;;;;;;;15.90;99.90;;;;;;5086111;28;19932;-43
2023/07/14 02:15:27;;;;;;;;;;;15.80;99.90;;;;;;5072983;28;19936;-42
2023/07/14 02:17:54;;;;;;;;;;;15.80;99.90;;;;;;5051786;28;19929;-43
2023/07/14 02:20:23;;;;;;;;;;;15.80;99.90;;;;;;5063491;28;20376;-44
2023/07/14 02:22:50;;;;;;;;;;;15.80;99.90;;;;;;5076615;28;19924;-44
2023/07/14 02:25:18;;;;;;;;;;;15.70;99.90;;;;;;5079632;28;19932;-43
2023/07/14 02:27:45;;;;;;;;;;;15.70;99.90;;;;;;5052170;28;19955;-43
2023/07/14 02:30:13;;;;;;;;;;;15.70;99.90;;;;;;5050783;28;20466;-44
2023/07/14 02:32:41;;;;;;;;;;;15.70;99.90;;;;;;5078228;28;19939;-43
2023/07/14 02:35:11;;;;;;;;;;;15.60;99.90;;;;;;5072948;28;19931;-43
2023/07/14 02:37:43;;;;;;;;;;;15.60;99.90;;;;;;5060334;28;19925;-43
2023/07/14 02:40:10;;;;;;;;;;;15.60;99.90;;;;;;5069118;28;19924;-42
2023/07/14 02:42:37;;;;;;;;;;;15.60;99.90;;;;;;5060325;28;19929;-43
2023/07/14 02:45:05;;;;;;;;;;;15.50;99.90;;;;;;5062904;28;19925;-44
2023/07/14 02:47:31;;;;;;;;;;;15.50;99.90;;;;;;5089609;28;19924;-43
2023/07/14 02:49:58;;;;;;;;;;;15.40;99.90;;;;;;5083784;28;20011;-43
2023/07/14 02:52:25;;;;;;;;;;;15.40;99.90;;;;;;5107258;28;19928;-43
2023/07/14 02:54:53;;;;;;;;;;;15.40;99.90;;;;;;5066596;28;19925;-44
2023/07/14 02:57:20;;;;;;;;;;;15.40;99.90;;;;;;5070632;28;19924;-43
2023/07/14 02:59:47;;;;;;;;;;;15.40;99.90;;;;;;5102739;28;20380;-42
2023/07/14 03:02:14;;;;;;;;;;;15.40;99.90;;;;;;5068970;28;19931;-43
2023/07/14 03:04:40;;;;;;;;;;;15.40;99.90;;;;;;5068721;28;20011;-43
2023/07/14 03:07:07;;;;;;;;;;;15.40;99.90;;;;;;5070828;28;20315;-43
2023/07/14 03:09:34;;;;;;;;;;;15.40;99.90;;;;;;5078649;28;19935;-44
2023/07/14 03:12:02;;;;;;;;;;;15.40;99.90;;;;;;5071530;28;19932;-44
2023/07/14 03:14:29;;;;;;;;;;;15.30;99.90;;;;;;5069919;28;19931;-43
2023/07/14 03:16:56;;;;;;;;;;;15.30;99.90;;;;;;5071242;28;20326;-44
2023/07/14 03:19:23;;;;;;;;;;;15.30;99.90;;;;;;5070824;28;19931;-43
2023/07/14 03:21:49;;;;;;;;;;;15.30;99.90;;;;;;5074105;28;20402;-43
2023/07/14 03:24:16;;;;;;;;;;;15.30;99.90;;;;;;5069303;28;19932;-44
2023/07/14 03:26:43;;;;;;;;;;;15.30;99.90;;;;;;5071090;28;19960;-43
2023/07/14 03:29:11;;;;;;;;;;;15.30;99.90;;;;;;5070840;28;20027;-43
2023/07/14 03:31:38;;;;;;;;;;;15.20;99.90;;;;;;5064960;28;19928;-42
2023/07/14 03:34:05;;;;;;;;;;;15.20;99.90;;;;;;5104331;27;20007;-44
2023/07/14 03:36:32;;;;;;;;;;;15.20;99.90;;;;;;5079751;28;19954;-43
2023/07/14 03:39:17;;;;;;;;;;;15.20;99.90;;;;;;5073432;28;19930;-43
2023/07/14 03:41:44;;;;;;;;;;;15.20;99.90;;;;;;5074387;28;20399;-44
2023/07/14 03:44:12;;;;;;;;;;;15.20;99.90;;;;;;5064223;28;19933;-44
2023/07/14 03:46:39;;;;;;;;;;;15.20;99.90;;;;;;5114687;27;19924;-44
2023/07/14 03:49:06;;;;;;;;;;;15.10;99.90;;;;;;5072976;28;19976;-44
2023/07/14 03:51:32;;;;;;;;;;;15.10;99.90;;;;;;5075492;28;20027;-44
2023/07/14 03:53:59;;;;;;;;;;;15.10;99.90;;;;;;5064051;28;19924;-43
2023/07/14 03:56:26;;;;;;;;;;;15.10;99.90;;;;;;5068001;28;19924;-44
2023/07/14 03:58:53;;;;;;;;;;;15.10;99.90;;;;;;5092283;28;19930;-44
2023/07/14 04:01:21;;;;;;;;;;;15.10;99.90;;;;;;5072192;28;19930;-43
2023/07/14 04:03:48;;;;;;;;;;;15.10;99.90;;;;;;5072198;28;19931;-44
2023/07/14 04:06:15;;;;;;;;;;;15.10;99.90;;;;;;5063669;28;19931;-44
2023/07/14 04:08:42;;;;;;;;;;;15.10;99.90;;;;;;5058171;28;19993;-42
2023/07/14 04:11:09;;;;;;;;;;;15.10;99.90;;;;;;5117841;27;20437;-43
2023/07/14 04:13:36;;;;;;;;;;;15.10;99.90;;;;;;5071953;28;20021;-44
2023/07/14 04:16:04;;;;;;;;;;;15.10;99.90;;;;;;5068857;28;20281;-43
2023/07/14 04:18:32;;;;;;;;;;;15.10;99.90;;;;;;5057795;28;20672;-44
2023/07/14 04:21:00;;;;;;;;;;;15.10;99.90;;;;;;5069092;28;20015;-44
2023/07/14 04:23:27;;;;;;;;;;;15.10;99.90;;;;;;5072697;28;19925;-44
2023/07/14 04:25:54;;;;;;;;;;;15.10;99.90;;;;;;5054166;28;19931;-44
2023/07/14 04:28:21;;;;;;;;;;;15.10;99.90;;;;;;5069422;28;19930;-45
2023/07/14 04:30:53;;;;;;;;;;;15.10;99.90;;;;;;5072261;28;19924;-44
2023/07/14 04:33:21;;;;;;;;;;;15.00;99.90;;;;;;5072385;28;20020;-44
2023/07/14 04:35:51;;;;;;;;;;;15.10;99.90;;;;;;5064275;28;19936;-44
2023/07/14 04:38:17;;;;;;;;;;;15.10;99.90;;;;;;5065404;28;19955;-44
2023/07/14 04:40:44;;;;;;;;;;;15.10;99.90;;;;;;5065533;28;19925;-43
2023/07/14 04:43:11;;;;;;;;;;;15.20;99.90;;;;;;5053667;28;19932;-43
2023/07/14 04:45:38;;;;;;;;;;;15.20;99.90;;;;;;5115407;27;19931;-44
2023/07/14 04:48:05;;;;;;;;;;;15.20;99.90;;;;;;5081200;28;19976;-44
2023/07/14 04:50:32;;;;;;;;;;;15.30;99.90;;;;;;5072201;28;19932;-43
2023/07/14 04:53:00;;;;;;;;;;;15.30;99.90;;;;;;5056734;28;19928;-43
2023/07/14 04:55:27;;;;;;;;;;;15.40;99.90;;;;;;5067686;28;19971;-43
2023/07/14 04:57:54;;;;;;;;;;;15.40;99.90;;;;;;5072076;28;19925;-44
2023/07/14 05:00:21;;;;;;;;;;;15.50;99.90;;;;;;5064215;28;20372;-43
2023/07/14 05:02:48;;;;;;;;;;;15.50;99.90;;;;;;5079657;28;19924;-44
2023/07/14 05:05:15;;;;;;;;;;;15.50;99.90;;;;;;5066488;28;19924;-44
2023/07/14 05:07:42;;;;;;;;;;;15.50;99.90;;;;;;5063034;28;19925;-44
2023/07/14 05:10:10;;;;;;;;;;;15.60;99.90;;;;;;5086526;28;19940;-44
2023/07/14 05:12:37;;;;;;;;;;;15.60;99.90;;;;;;5081197;28;20015;-44
2023/07/14 05:15:05;;;;;;;;;;;15.60;99.90;;;;;;5060139;28;19925;-44
2023/07/14 05:17:32;;;;;;;;;;;15.70;99.90;;;;;;5060316;28;19963;-43
2023/07/14 05:19:59;;;;;;;;;;;15.70;99.90;;;;;;5062527;28;20407;-43
2023/07/14 05:22:26;;;;;;;;;;;15.70;99.90;;;;;;5061510;28;19948;-42
2023/07/14 05:24:53;;;;;;;;;;;15.80;99.90;;;;;;5071829;28;20438;-43
2023/07/14 05:27:21;;;;;;;;;;;15.80;99.90;;;;;;5057887;28;20007;-44
2023/07/14 05:29:49;;;;;;;;;;;15.90;99.90;;;;;;5059842;28;19964;-44
2023/07/14 05:32:16;;;;;;;;;;;15.90;99.90;;;;;;5058399;28;19998;-43
2023/07/14 05:34:43;;;;;;;;;;;15.90;99.90;;;;;;5075105;28;19931;-43
2023/07/14 05:37:11;;;;;;;;;;;16.00;99.90;;;;;;5061907;28;19936;-43
2023/07/14 05:39:38;;;;;;;;;;;16.00;99.90;;;;;;5069737;28;19928;-43
2023/07/14 05:42:05;;;;;;;;;;;16.10;99.90;;;;;;5082485;28;19931;-43
2023/07/14 05:44:33;;;;;;;;;;;16.10;99.90;;;;;;5073043;28;19931;-42
2023/07/14 05:47:00;;;;;;;;;;;16.20;99.90;;;;;;5091494;28;19928;-43
2023/07/14 05:49:27;;;;;;;;;;;16.20;99.90;;;;;;5088588;28;19924;-44
2023/07/14 05:51:53;;;;;;;;;;;16.30;99.90;;;;;;5074827;28;20010;-43
2023/07/14 05:54:20;;;;;;;;;;;16.30;99.90;;;;;;5070373;28;20372;-44
2023/07/14 05:56:47;;;;;;;;;;;16.40;99.90;;;;;;5086132;28;19930;-43
2023/07/14 05:59:14;;;;;;;;;;;16.40;99.90;;;;;;5067572;28;19924;-43
2023/07/14 06:01:42;;;;;;;;;;;16.50;99.90;;;;;;5082182;28;19931;-44
2023/07/14 06:04:09;;;;;;;;;;;16.60;99.90;;;;;;5065345;28;19931;-43
2023/07/14 06:06:37;;;;;;;;;;;16.70;99.90;;;;;;5062740;28;19975;-43
2023/07/14 06:09:05;;;;;;;;;;;16.80;99.90;;;;;;5069318;28;19962;-43
2023/07/14 06:11:31;;;;;;;;;;;16.90;99.90;;;;;;5082910;28;20358;-42
2023/07/14 06:13:58;;;;;;;;;;;17.00;99.90;;;;;;5083729;28;20434;-44
2023/07/14 06:16:25;;;;;;;;;;;17.10;99.90;;;;;;5103640;28;19970;-44
2023/07/14 06:18:53;;;;;;;;;;;17.20;99.90;;;;;;5070165;28;19925;-43
2023/07/14 06:21:20;;;;;;;;;;;17.40;99.90;;;;;;5112266;28;19928;-43
2023/07/14 06:23:47;;;;;;;;;;;17.50;99.90;;;;;;5063315;28;19924;-43
2023/07/14 06:26:14;;;;;;;;;;;17.60;99.90;;;;;;5089035;28;19924;-43
2023/07/14 06:28:42;;;;;;;;;;;17.70;99.90;;;;;;5115336;28;20004;-44
2023/07/14 06:31:11;;;;;;;;;;;17.80;99.90;;;;;;5070146;28;20390;-43
2023/07/14 06:33:38;;;;;;;;;;;17.90;99.90;;;;;;5089833;28;20013;-43
2023/07/14 06:36:07;;;;;;;;;;;18.00;99.90;;;;;;5085796;28;20010;-43
2023/07/14 06:38:34;;;;;;;;;;;18.20;99.90;;;;;;5087819;28;20331;-44
2023/07/14 06:41:01;;;;;;;;;;;18.30;99.90;;;;;;5065534;28;19931;-43
2023/07/14 06:43:29;;;;;;;;;;;18.40;99.90;;;;;;5072487;28;20364;-43
2023/07/14 06:45:55;;;;;;;;;;;18.50;99.90;;;;;;5089832;28;19932;-43
2023/07/14 06:48:22;;;;;;;;;;;18.70;99.90;;;;;;5114230;28;19933;-44
2023/07/14 06:50:49;;;;;;;;;;;18.80;99.90;;;;;;5064761;28;20294;-46
2023/07/14 06:53:18;;;;;;;;;;;18.90;99.90;;;;;;5070780;28;19924;-43
2023/07/14 06:55:45;;;;;;;;;;;19.00;99.90;;;;;;5058111;28;20391;-43
2023/07/14 06:58:12;;;;;;;;;;;19.10;99.90;;;;;;5056659;28;19928;-43
2023/07/14 07:00:38;;;;;;;;;;;19.20;99.90;;;;;;5066493;28;19924;-42
2023/07/14 07:03:05;;;;;;;;;;;19.30;99.90;;;;;;5087497;28;20391;-43
2023/07/14 07:05:35;;;;;;;;;;;19.50;99.90;;;;;;5089780;28;19931;-44
2023/07/14 07:08:01;;;;;;;;;;;19.60;99.90;;;;;;5070256;28;19931;-43
2023/07/14 07:10:29;;;;;;;;;;;19.80;99.90;;;;;;5053067;28;19925;-42
2023/07/14 07:12:56;;;;;;;;;;;19.90;99.90;;;;;;5069446;28;19929;-44
2023/07/14 07:15:23;;;;;;;;;;;20.00;99.90;;;;;;5060537;28;19932;-44
2023/07/14 07:17:50;;;;;;;;;;;20.00;99.90;;;;;;5068907;28;20046;-43
2023/07/14 07:20:17;;;;;;;;;;;20.10;99.90;;;;;;5104309;28;20415;-43
2023/07/14 07:22:45;;;;;;;;;;;20.20;99.90;;;;;;5062840;28;19924;-44
2023/07/14 07:25:12;;;;;;;;;;;20.30;99.90;;;;;;5084843;28;20017;-44
2023/07/14 07:27:40;;;;;;;;;;;20.40;99.90;;;;;;5074481;28;20011;-43
2023/07/14 07:30:09;;;;;;;;;;;20.60;99.90;;;;;;5074260;28;20143;-44
2023/07/14 07:32:36;;;;;;;;;;;20.60;99.90;;;;;;5085166;28;20335;-43
2023/07/14 07:35:03;;;;;;;;;;;20.70;99.90;;;;;;5094183;28;20446;-43
2023/07/14 07:37:31;;;;;;;;;;;20.80;99.90;;;;;;5084734;28;19925;-43
2023/07/14 07:39:59;;;;;;;;;;;21.00;99.90;;;;;;5061293;28;20407;-43
2023/07/14 07:42:25;;;;;;;;;;;21.10;99.90;;;;;;5053988;28;20579;-44
2023/07/14 07:44:54;;;;;;;;;;;21.20;99.90;;;;;;5081281;28;20291;-44
2023/07/14 07:47:21;;;;;;;;;;;21.30;99.90;;;;;;5094106;28;19974;-43
2023/07/14 07:49:47;;;;;;;;;;;21.30;99.90;;;;;;5085148;28;20174;-44
2023/07/14 07:52:14;;;;;;;;;;;21.30;99.90;;;;;;5078444;28;19931;-44
2023/07/14 07:54:41;;;;;;;;;;;21.40;99.90;;;;;;5092512;28;19928;-43
2023/07/14 07:57:08;;;;;;;;;;;21.50;99.90;;;;;;5123018;27;19932;-42
2023/07/14 07:59:35;;;;;;;;;;;21.60;99.90;;;;;;5093349;28;20330;-43
2023/07/14 08:02:03;;;;;;;;;;;21.60;99.40;;;;;;5072253;28;19924;-43
2023/07/14 08:04:30;;;;;;;;;;;21.70;99.20;;;;;;5068403;28;19928;-43
2023/07/14 08:06:57;;;;;;;;;;;21.70;99.80;;;;;;5052329;28;19933;-43
2023/07/14 08:09:24;;;;;;;;;;;21.90;99.90;;;;;;5056038;28;20345;-44
2023/07/14 08:11:54;;;;;;;;;;;22.00;99.30;;;;;;5063068;28;20023;-43
2023/07/14 08:14:21;;;;;;;;;;;22.10;97.90;;;;;;5077700;28;19928;-44
2023/07/14 08:16:48;;;;;;;;;;;22.10;98.60;;;;;;5087335;28;19931;-45
2023/07/14 08:19:16;;;;;;;;;;;22.30;99.30;;;;;;5078296;28;19925;-44
2023/07/14 08:21:43;;;;;;;;;;;22.50;98.10;;;;;;5073107;28;19928;-43
2023/07/14 08:24:10;;;;;;;;;;;22.60;98.90;;;;;;5078987;28;19928;-44
2023/07/14 08:26:37;;;;;;;;;;;22.70;97.70;;;;;;5073389;28;19954;-44
2023/07/14 08:29:04;;;;;;;;;;;22.90;98.70;;;;;;5070377;28;19937;-44
2023/07/14 08:31:31;;;;;;;;;;;23.10;98.00;;;;;;5072242;28;19928;-43
2023/07/14 08:33:58;;;;;;;;;;;23.10;96.60;;;;;;5072588;28;19931;-45
2023/07/14 08:36:27;;;;;;;;;;;23.20;96.50;;;;;;5072829;28;19932;-44
2023/07/14 08:38:54;;;;;;;;;;;23.20;95.60;;;;;;5102969;28;19974;-44
2023/07/14 08:41:24;;;;;;;;;;;23.30;94.90;;;;;;5101525;27;19932;-44
2023/07/14 08:43:54;;;;;;;;;;;23.30;94.40;;;;;;5091980;28;19928;-45
2023/07/14 08:46:22;;;;;;;;;;;23.40;94.80;;;;;;5122375;27;19928;-44
2023/07/14 08:48:52;;;;;;;;;;;23.50;94.00;;;;;;5092605;28;19930;-43
2023/07/14 08:51:19;;;;;;;;;;;23.60;94.50;;;;;;5070864;28;20298;-44
2023/07/14 08:53:48;;;;;;;;;;;23.70;93.00;;;;;;5071160;28;19932;-44
2023/07/14 08:56:16;;;;;;;;;;;23.80;93.90;;;;;;5075344;28;20398;-44
2023/07/14 08:58:43;;;;;;;;;;;24.00;94.90;;;;;;5072619;28;19978;-43
2023/07/14 09:01:13;;;;;;;;;;;24.30;94.00;;;;;;5070009;28;19974;-45
2023/07/14 09:03:42;;;;;;;;;;;24.40;91.60;;;;;;5061163;28;19924;-45
2023/07/14 09:06:21;;;;;;;;;;;24.50;92.40;;;;;;5068900;28;19924;-44
2023/07/14 09:08:49;;;;;;;;;;;24.60;92.80;;;;;;5076609;28;20379;-43
2023/07/14 09:11:21;;;;;;;;;;;24.70;91.50;;;;;;5058991;28;19931;-43
2023/07/14 09:13:50;;;;;;;;;;;24.70;92.10;;;;;;5055797;28;20391;-44
2023/07/14 09:16:17;;;;;;;;;;;24.90;90.60;;;;;;5092354;28;20027;-44
2023/07/14 09:18:47;;;;;;;;;;;25.00;90.80;;;;;;5087596;28;19974;-43
2023/07/14 09:21:15;;;;;;;;;;;24.90;91.20;;;;;;5070159;28;19924;-43
2023/07/14 09:23:57;;;;;;;;;;;25.00;90.90;;;;;;5068856;28;19935;-44
2023/07/14 09:26:25;;;;;;;;;;;25.10;90.70;;;;;;5080366;28;19924;-45
2023/07/14 09:28:52;;;;;;;;;;;25.30;90.30;;;;;;5068258;28;19934;-44
2023/07/14 09:31:22;;;;;;;;;;;25.30;91.00;;;;;;5070011;28;19932;-42
2023/07/14 09:33:50;;;;;;;;;;;25.20;90.20;;;;;;5055106;28;19932;-43
2023/07/14 09:36:17;;;;;;;;;;;25.00;90.80;;;;;;5069441;28;19925;-43
2023/07/14 09:38:46;;;;;;;;;;;25.00;90.50;;;;;;5090871;28;19924;-43
2023/07/14 09:41:16;;;;;;;;;;;25.00;90.80;;;;;;5075736;28;19968;-43
2023/07/14 09:43:43;;;;;;;;;;;25.20;90.60;;;;;;5091751;28;20435;-43
2023/07/14 09:46:10;;;;;;;;;;;25.20;90.30;;;;;;5060307;28;19924;-44
2023/07/14 09:48:41;;;;;;;;;;;25.20;90.60;;;;;;5091026;28;19970;-44
2023/07/14 09:51:10;;;;;;;;;;;25.30;90.60;;;;;;5120758;27;19928;-44
2023/07/14 09:53:37;;;;;;;;;;;25.20;90.70;;;;;;5124952;27;19928;-44
2023/07/14 09:56:04;;;;;;;;;;;25.20;89.70;;;;;;5070161;28;19925;-44
2023/07/14 09:58:33;;;;;;;;;;;25.20;89.30;;;;;;5078490;28;19927;-43
2023/07/14 10:01:04;;;;;;;;;;;25.10;90.80;;;;;;5069251;28;20027;-43
2023/07/14 10:03:32;;;;;;;;;;;25.00;90.40;;;;;;5069729;28;19924;-42
2023/07/14 10:06:02;;;;;;;;;;;25.00;90.90;;;;;;5069483;28;19979;-41
2023/07/14 10:08:30;;;;;;;;;;;24.90;90.20;;;;;;5072427;28;20593;-43
2023/07/14 10:10:59;;;;;;;;;;;24.80;90.40;;;;;;5088782;28;19970;-43
2023/07/14 10:13:27;;;;;;;;;;;24.60;88.60;;;;;;5073129;28;19981;-44
2023/07/14 10:15:57;;;;;;;;;;;24.50;90.10;;;;;;5062308;28;20678;-44
2023/07/14 10:18:24;;;;;;;;;;;24.40;89.50;;;;;;5051132;28;19931;-44
2023/07/14 10:21:01;;;;;;;;;;;24.60;91.00;;;;;;5061139;28;19925;-44
2023/07/14 10:23:28;;;;;;;;;;;24.80;90.10;;;;;;5104355;28;19925;-44
2023/07/14 10:25:55;;;;;;;;;;;24.80;86.70;;;;;;5070692;28;20372;-43
2023/07/14 10:28:23;;;;;;;;;;;24.90;89.00;;;;;;5091234;28;20022;-44
2023/07/14 10:30:53;;;;;;;;;;;25.10;88.00;;;;;;5092802;28;19985;-44
2023/07/14 10:33:22;;;;;;;;;;;25.30;85.50;;;;;;5076227;28;20019;-44
2023/07/14 10:35:56;;;;;;;;;;;25.40;86.10;;;;;;5070109;28;19930;-43
2023/07/14 10:38:24;;;;;;;;;;;25.60;85.10;;;;;;5068378;28;19929;-43
2023/07/14 10:40:53;;;;;;;;;;;25.70;83.30;;;;;;5075657;28;19930;-44
2023/07/14 10:43:20;;;;;;;;;;;25.70;83.60;;;;;;5090842;28;20399;-44
2023/07/14 10:45:48;;;;;;;;;;;25.70;82.00;;;;;;5057062;28;19924;-43
2023/07/14 10:48:15;;;;;;;;;;;25.70;83.00;;;;;;5078629;28;20376;-43
2023/07/14 10:50:44;;;;;;;;;;;25.80;83.20;;;;;;5069834;28;19974;-43
2023/07/14 10:53:13;;;;;;;;;;;25.80;82.50;;;;;;5068594;28;19925;-44
2023/07/14 10:55:40;;;;;;;;;;;25.90;79.80;;;;;;5069471;28;19932;-44
2023/07/14 10:58:11;;;;;;;;;;;25.80;83.10;;;;;;5069738;28;20296;-43
2023/07/14 11:00:38;;;;;;;;;;;25.80;82.90;;;;;;5097819;28;19924;-45
2023/07/14 11:03:10;;;;;;;;;;;25.80;82.50;;;;;;5075274;28;19931;-44
2023/07/14 11:05:38;;;;;;;;;;;25.80;83.30;;;;;;5079553;28;19969;-43
2023/07/14 11:08:09;;;;;;;;;;;25.70;81.50;;;;;;5093984;28;19931;-42
2023/07/14 11:10:39;;;;;;;;;;;25.80;83.70;;;;;;5082220;28;20327;-43
2023/07/14 11:13:14;;;;;;;;;;;25.90;82.60;;;;;;5088819;28;19924;-45
2023/07/14 11:15:42;;;;;;;;;;;26.10;81.40;;;;;;5070586;28;19932;-43
2023/07/14 11:18:13;;;;;;;;;;;26.10;81.20;;;;;;5071098;28;20395;-44
2023/07/14 11:20:40;;;;;;;;;;;26.00;80.00;;;;;;5070814;28;19924;-42
2023/07/14 11:23:13;;;;;;;;;;;25.90;79.00;;;;;;5055334;28;19924;-44
2023/07/14 11:25:40;;;;;;;;;;;25.70;78.40;;;;;;5055661;28;19951;-43
2023/07/14 11:28:12;;;;;;;;;;;25.60;79.10;;;;;;5054890;28;20380;-42
2023/07/14 11:30:39;;;;;;;;;;;25.60;82.10;;;;;;5059788;28;19951;-43
2023/07/14 11:33:06;;;;;;;;;;;25.90;80.40;;;;;;5063139;28;20273;-44
2023/07/14 11:35:34;;;;;;;;;;;25.90;80.10;;;;;;5064640;28;19928;-44
2023/07/14 11:38:04;;;;;;;;;;;25.90;81.60;;;;;;5094020;28;20388;-44
2023/07/14 11:40:34;;;;;;;;;;;25.70;81.60;;;;;;5073043;28;19924;-43
2023/07/14 11:43:01;;;;;;;;;;;25.80;81.60;;;;;;5073191;28;19935;-44
2023/07/14 11:45:28;;;;;;;;;;;26.00;81.20;;;;;;5074360;28;19924;-44
2023/07/14 11:47:56;;;;;;;;;;;25.90;79.00;;;;;;5077907;28;19928;-44
2023/07/14 11:50:23;;;;;;;;;;;25.80;80.00;;;;;;5074684;28;19932;-44
2023/07/14 11:53:00;;;;;;;;;;;25.70;79.60;;;;;;5074096;28;19925;-44
2023/07/14 11:55:27;;;;;;;;;;;25.60;81.20;;;;;;5071818;28;19929;-43
2023/07/14 11:58:05;;;;;;;;;;;25.50;80.20;;;;;;5082797;28;19925;-44
2023/07/14 12:00:35;;;;;;;;;;;25.40;81.80;;;;;;5083787;28;19924;-44
2023/07/14 12:03:02;;;;;;;;;;;25.30;81.50;;;;;;5065938;28;20389;-44
2023/07/14 12:05:31;;;;;;;;;;;25.10;81.70;;;;;;5073962;28;19946;-44
2023/07/14 12:08:11;;;;;;;;;;;25.10;83.20;;;;;;5073080;28;19977;-43
2023/07/14 12:10:45;;;;;;;;;;;25.00;83.70;;;;;;5072332;28;20023;-44
2023/07/14 12:13:21;;;;;;;;;;;25.10;83.70;;;;;;5067098;28;20041;-44
2023/07/14 12:15:47;;;;;;;;;;;25.10;84.10;;;;;;5072704;28;20001;-44
2023/07/14 12:18:18;;;;;;;;;;;25.20;84.80;;;;;;5105500;28;19932;-44
2023/07/14 12:20:45;;;;;;;;;;;25.20;82.90;;;;;;5072250;28;19931;-44
2023/07/14 12:23:24;;;;;;;;;;;25.20;81.10;;;;;;5087359;28;20377;-44
2023/07/14 12:25:52;;;;;;;;;;;25.20;80.90;;;;;;5060375;28;19929;-44
2023/07/14 12:28:22;;;;;;;;;;;25.20;80.80;;;;;;5063925;28;20510;-43
2023/07/14 12:30:50;;;;;;;;;;;25.20;81.10;;;;;;5086559;28;19932;-44
2023/07/14 12:33:19;;;;;;;;;;;25.40;82.40;;;;;;5071989;28;19924;-44
2023/07/14 12:35:46;;;;;;;;;;;25.50;82.20;;;;;;5073807;28;20311;-44
2023/07/14 12:38:14;;;;;;;;;;;25.70;82.40;;;;;;5069049;28;20026;-44
2023/07/14 12:40:41;;;;;;;;;;;25.90;81.50;;;;;;5076080;28;19985;-43
2023/07/14 12:43:08;;;;;;;;;;;26.00;80.50;;;;;;5100243;27;19924;-43
2023/07/14 12:45:37;;;;;;;;;;;26.00;80.90;;;;;;5067089;28;20341;-44
2023/07/14 12:48:04;;;;;;;;;;;26.00;81.70;;;;;;5070161;28;19929;-44
2023/07/14 12:50:31;;;;;;;;;;;26.10;82.30;;;;;;5118907;27;19940;-43
2023/07/14 12:52:57;;;;;;;;;;;26.00;79.70;;;;;;5092562;28;19928;-43
2023/07/14 12:55:24;;;;;;;;;;;25.90;80.70;;;;;;5069606;28;19931;-44
2023/07/14 12:57:51;;;;;;;;;;;25.80;81.20;;;;;;5067738;28;20215;-43
2023/07/14 13:00:19;;;;;;;;;;;25.80;82.00;;;;;;5092200;28;19924;-43
2023/07/14 13:02:47;;;;;;;;;;;25.80;82.70;;;;;;5093358;28;19924;-44
2023/07/14 13:05:14;;;;;;;;;;;25.90;81.10;;;;;;5109165;27;20402;-44
2023/07/14 13:07:41;;;;;;;;;;;26.10;81.30;;;;;;5060096;28;19928;-45
2023/07/14 13:10:11;;;;;;;;;;;26.40;80.00;;;;;;5071982;28;20155;-43
2023/07/14 13:12:37;;;;;;;;;;;26.40;79.80;;;;;;5068300;28;19924;-44
2023/07/14 13:15:05;;;;;;;;;;;26.30;80.20;;;;;;5063867;28;19978;-43
2023/07/14 13:17:31;;;;;;;;;;;26.30;79.90;;;;;;5052770;28;19925;-44
2023/07/14 13:20:08;;;;;;;;;;;26.20;80.70;;;;;;5064198;28;20284;-43
2023/07/14 13:22:37;;;;;;;;;;;26.10;80.80;;;;;;5084166;28;19977;-45
2023/07/14 13:25:04;;;;;;;;;;;26.10;81.30;;;;;;5061847;28;20308;-44
2023/07/14 13:27:31;;;;;;;;;;;26.00;80.80;;;;;;5123436;27;20394;-44
2023/07/14 13:29:58;;;;;;;;;;;25.90;81.20;;;;;;5110436;27;19974;-44
2023/07/14 13:32:25;;;;;;;;;;;25.90;82.00;;;;;;5071642;28;20364;-43
2023/07/14 13:34:52;;;;;;;;;;;25.90;81.90;;;;;;5066072;28;19924;-43
2023/07/14 13:37:20;;;;;;;;;;;25.90;82.10;;;;;;5113733;27;19928;-44
2023/07/14 13:39:53;;;;;;;;;;;25.90;81.50;;;;;;5082490;28;19924;-44
2023/07/14 13:42:22;;;;;;;;;;;25.80;81.00;;;;;;5069278;28;19978;-44
2023/07/14 13:44:49;;;;;;;;;;;25.70;80.10;;;;;;5056428;28;20328;-44
2023/07/14 13:47:17;;;;;;;;;;;25.60;80.50;;;;;;5058230;28;20325;-44
2023/07/14 13:49:44;;;;;;;;;;;25.60;80.20;;;;;;5061161;28;19924;-43
2023/07/14 13:52:12;;;;;;;;;;;25.60;79.60;;;;;;5070279;28;19928;-44
2023/07/14 13:54:40;;;;;;;;;;;25.70;79.70;;;;;;5095800;28;19951;-43
2023/07/14 13:57:09;;;;;;;;;;;25.70;77.10;;;;;;5064329;28;19925;-44
2023/07/14 13:59:36;;;;;;;;;;;25.70;78.80;;;;;;5067855;28;19928;-44
2023/07/14 14:02:04;;;;;;;;;;;25.70;79.20;;;;;;5056731;28;19929;-44
2023/07/14 14:04:31;;;;;;;;;;;25.70;79.80;;;;;;5066397;28;19932;-44
2023/07/14 14:06:58;;;;;;;;;;;25.70;78.90;;;;;;5111811;27;19924;-43
2023/07/14 14:09:25;;;;;;;;;;;25.80;78.60;;;;;;5077737;28;20021;-44
2023/07/14 14:11:53;;;;;;;;;;;25.80;79.20;;;;;;5062003;28;19924;-45
2023/07/14 14:14:22;;;;;;;;;;;26.00;79.60;;;;;;5074658;28;19939;-44
2023/07/14 14:16:49;;;;;;;;;;;26.20;79.30;;;;;;5079600;28;19964;-44
2023/07/14 14:19:16;;;;;;;;;;;26.30;78.50;;;;;;5064580;28;19932;-44
2023/07/14 14:21:43;;;;;;;;;;;26.20;77.90;;;;;;5070579;28;19963;-45